Albany, New York
Traffic Map
Current Weather Conditions
Albany, New York
Overcast
Overcast
74°
Feels Like: 74°
Wind Chill: 74° Ceiling: 8000
Heat Index: 74° Visibility: 10mi
Dew Point: 52° Wind: 10mph
Humidity: 46% Direction: 170° (S)
Pressure: 30.02in Gusts: 0mph
Raw Report DataKALB 270551Z 17009KT 10SM OVC080 23/11 A3002 RMK AO2 SLP163 T02330111 10278 20233 53000
Traffic Incident Summary
Active as of:
Severity:
Category:
InformationThere was an issue retrieving the traffic information for this location. Please try a different location or try again shortly.
Advertisements
Track Severe Weather on mobile